<?xml version="1.0" encoding="UTF-8" standalone="no" ?>
<gpx xmlns="http://www.topografix.com/GPX/1/1" xmlns:xsi="http://www.w3.org/2001/XMLSchema-instance" xsi:schemaLocation="http://www.topografix.com/GPX/1/1 http://www.topografix.com/GPX/1/1/gpx.xsd" version="1.1" creator="VisuGPX - https://www.visugpx.com">
  <metadata>
    <name>à la découverte du 38330 (2)</name>
    <desc><![CDATA[On va un peu voir si c'est plus sympa de courir au milieu des champs que dans Montbonnot!]]></desc>
  </metadata>
  <trk>
    <name><![CDATA[2016-10-01 14:33:53]]></name>
    <trkseg>
      <trkpt lat="45.2224" lon="5.81176">
        <ele>214.51</ele>
        <time>2016-10-01T11:55:17Z</time>
      </trkpt>
      <trkpt lat="45.2225" lon="5.81187">
        <ele>217.88</ele>
        <time>2016-10-01T11:55:20Z</time>
      </trkpt>
      <trkpt lat="45.22259" lon="5.81195">
        <ele>222.2</ele>
        <time>2016-10-01T11:55:22Z</time>
      </trkpt>
      <trkpt lat="45.22261" lon="5.81198">
        <ele>222.2</ele>
        <time>2016-10-01T11:55:23Z</time>
      </trkpt>
      <trkpt lat="45.22264" lon="5.81201">
        <ele>225.09</ele>
        <time>2016-10-01T11:55:27Z</time>
      </trkpt>
      <trkpt lat="45.22267" lon="5.81202">
        <ele>231.81</ele>
        <time>2016-10-01T11:55:33Z</time>
      </trkpt>
      <trkpt lat="45.22268" lon="5.81203">
        <ele>227.49</ele>
        <time>2016-10-01T11:55:36Z</time>
      </trkpt>
      <trkpt lat="45.22269" lon="5.81203">
        <ele>232.78</ele>
        <time>2016-10-01T11:55:37Z</time>
      </trkpt>
      <trkpt lat="45.22269" lon="5.81204">
        <ele>231.33</ele>
        <time>2016-10-01T11:55:38Z</time>
      </trkpt>
      <trkpt lat="45.22269" lon="5.81203">
        <ele>232.78</ele>
        <time>2016-10-01T11:55:43Z</time>
      </trkpt>
      <trkpt lat="45.22263" lon="5.81197">
        <ele>234.22</ele>
        <time>2016-10-01T11:55:48Z</time>
      </trkpt>
      <trkpt lat="45.2226" lon="5.81197">
        <ele>234.22</ele>
        <time>2016-10-01T11:55:50Z</time>
      </trkpt>
      <trkpt lat="45.22257" lon="5.81197">
        <ele>234.7</ele>
        <time>2016-10-01T11:55:51Z</time>
      </trkpt>
      <trkpt lat="45.22255" lon="5.81196">
        <ele>234.7</ele>
        <time>2016-10-01T11:55:52Z</time>
      </trkpt>
      <trkpt lat="45.22254" lon="5.81195">
        <ele>234.7</ele>
        <time>2016-10-01T11:55:53Z</time>
      </trkpt>
      <trkpt lat="45.22252" lon="5.81194">
        <ele>234.22</ele>
        <time>2016-10-01T11:55:54Z</time>
      </trkpt>
      <trkpt lat="45.2225" lon="5.81193">
        <ele>234.7</ele>
        <time>2016-10-01T11:55:55Z</time>
      </trkpt>
      <trkpt lat="45.22247" lon="5.81193">
        <ele>234.7</ele>
        <time>2016-10-01T11:55:56Z</time>
      </trkpt>
      <trkpt lat="45.22246" lon="5.81194">
        <ele>234.7</ele>
        <time>2016-10-01T11:55:57Z</time>
      </trkpt>
      <trkpt lat="45.22244" lon="5.81194">
        <ele>234.22</ele>
        <time>2016-10-01T11:55:58Z</time>
      </trkpt>
      <trkpt lat="45.22243" lon="5.81195">
        <ele>234.22</ele>
        <time>2016-10-01T11:55:59Z</time>
      </trkpt>
      <trkpt lat="45.22241" lon="5.812">
        <ele>234.22</ele>
        <time>2016-10-01T11:56:02Z</time>
      </trkpt>
      <trkpt lat="45.22239" lon="5.8121">
        <ele>234.22</ele>
        <time>2016-10-01T11:56:08Z</time>
      </trkpt>
      <trkpt lat="45.22239" lon="5.81212">
        <ele>233.74</ele>
        <time>2016-10-01T11:56:09Z</time>
      </trkpt>
      <trkpt lat="45.22239" lon="5.81214">
        <ele>233.74</ele>
        <time>2016-10-01T11:56:10Z</time>
      </trkpt>
      <trkpt lat="45.22239" lon="5.81218">
        <ele>233.74</ele>
        <time>2016-10-01T11:56:11Z</time>
      </trkpt>
      <trkpt lat="45.22238" lon="5.81221">
        <ele>232.78</ele>
        <time>2016-10-01T11:56:12Z</time>
      </trkpt>
      <trkpt lat="45.22238" lon="5.81226">
        <ele>232.78</ele>
        <time>2016-10-01T11:56:13Z</time>
      </trkpt>
      <trkpt lat="45.22239" lon="5.81228">
        <ele>232.78</ele>
        <time>2016-10-01T11:56:14Z</time>
      </trkpt>
      <trkpt lat="45.22241" lon="5.81238">
        <ele>232.3</ele>
        <time>2016-10-01T11:56:16Z</time>
      </trkpt>
      <trkpt lat="45.2224" lon="5.81243">
        <ele>232.3</ele>
        <time>2016-10-01T11:56:17Z</time>
      </trkpt>
      <trkpt lat="45.22238" lon="5.81249">
        <ele>232.3</ele>
        <time>2016-10-01T11:56:18Z</time>
      </trkpt>
      <trkpt lat="45.22235" lon="5.81252">
        <ele>232.3</ele>
        <time>2016-10-01T11:56:19Z</time>
      </trkpt>
      <trkpt lat="45.22232" lon="5.81256">
        <ele>231.81</ele>
        <time>2016-10-01T11:56:20Z</time>
      </trkpt>
      <trkpt lat="45.22229" lon="5.81259">
        <ele>231.81</ele>
        <time>2016-10-01T11:56:21Z</time>
      </trkpt>
      <trkpt lat="45.22208" lon="5.81275">
        <ele>231.81</ele>
        <time>2016-10-01T11:56:31Z</time>
      </trkpt>
      <trkpt lat="45.22205" lon="5.81279">
        <ele>231.81</ele>
        <time>2016-10-01T11:56:33Z</time>
      </trkpt>
      <trkpt lat="45.22195" lon="5.81286">
        <ele>231.81</ele>
        <time>2016-10-01T11:56:38Z</time>
      </trkpt>
      <trkpt lat="45.22193" lon="5.81288">
        <ele>231.81</ele>
        <time>2016-10-01T11:56:39Z</time>
      </trkpt>
      <trkpt lat="45.2219" lon="5.81289">
        <ele>231.81</ele>
        <time>2016-10-01T11:56:40Z</time>
      </trkpt>
      <trkpt lat="45.22188" lon="5.81289">
        <ele>231.81</ele>
        <time>2016-10-01T11:56:41Z</time>
      </trkpt>
      <trkpt lat="45.22185" lon="5.81288">
        <ele>231.81</ele>
        <time>2016-10-01T11:56:42Z</time>
      </trkpt>
      <trkpt lat="45.22165" lon="5.81279">
        <ele>231.81</ele>
        <time>2016-10-01T11:56:50Z</time>
      </trkpt>
      <trkpt lat="45.22143" lon="5.81264">
        <ele>231.81</ele>
        <time>2016-10-01T11:57:00Z</time>
      </trkpt>
      <trkpt lat="45.22119" lon="5.8125">
        <ele>231.33</ele>
        <time>2016-10-01T11:57:11Z</time>
      </trkpt>
      <trkpt lat="45.22094" lon="5.81236">
        <ele>230.85</ele>
        <time>2016-10-01T11:57:23Z</time>
      </trkpt>
      <trkpt lat="45.22067" lon="5.81219">
        <ele>229.89</ele>
        <time>2016-10-01T11:57:36Z</time>
      </trkpt>
      <trkpt lat="45.22041" lon="5.81199">
        <ele>229.41</ele>
        <time>2016-10-01T11:57:49Z</time>
      </trkpt>
      <trkpt lat="45.22023" lon="5.81185">
        <ele>228.93</ele>
        <time>2016-10-01T11:57:58Z</time>
      </trkpt>
      <trkpt lat="45.22021" lon="5.81186">
        <ele>228.93</ele>
        <time>2016-10-01T11:57:59Z</time>
      </trkpt>
      <trkpt lat="45.22019" lon="5.81187">
        <ele>228.93</ele>
        <time>2016-10-01T11:58:00Z</time>
      </trkpt>
      <trkpt lat="45.22017" lon="5.81188">
        <ele>228.93</ele>
        <time>2016-10-01T11:58:01Z</time>
      </trkpt>
      <trkpt lat="45.22015" lon="5.8119">
        <ele>228.93</ele>
        <time>2016-10-01T11:58:02Z</time>
      </trkpt>
      <trkpt lat="45.22013" lon="5.8119">
        <ele>228.93</ele>
        <time>2016-10-01T11:58:03Z</time>
      </trkpt>
      <trkpt lat="45.2199" lon="5.81198">
        <ele>227.49</ele>
        <time>2016-10-01T11:58:14Z</time>
      </trkpt>
      <trkpt lat="45.21977" lon="5.81211">
        <ele>227.01</ele>
        <time>2016-10-01T11:58:20Z</time>
      </trkpt>
      <trkpt lat="45.21975" lon="5.81213">
        <ele>227.01</ele>
        <time>2016-10-01T11:58:21Z</time>
      </trkpt>
      <trkpt lat="45.21973" lon="5.81216">
        <ele>227.49</ele>
        <time>2016-10-01T11:58:22Z</time>
      </trkpt>
      <trkpt lat="45.21962" lon="5.81229">
        <ele>227.01</ele>
        <time>2016-10-01T11:58:27Z</time>
      </trkpt>
      <trkpt lat="45.2196" lon="5.81231">
        <ele>227.01</ele>
        <time>2016-10-01T11:58:28Z</time>
      </trkpt>
      <trkpt lat="45.21951" lon="5.81257">
        <ele>226.53</ele>
        <time>2016-10-01T11:58:38Z</time>
      </trkpt>
      <trkpt lat="45.21951" lon="5.8126">
        <ele>226.53</ele>
        <time>2016-10-01T11:58:39Z</time>
      </trkpt>
      <trkpt lat="45.21951" lon="5.81262">
        <ele>226.53</ele>
        <time>2016-10-01T11:58:40Z</time>
      </trkpt>
      <trkpt lat="45.21951" lon="5.81265">
        <ele>226.53</ele>
        <time>2016-10-01T11:58:41Z</time>
      </trkpt>
      <trkpt lat="45.21951" lon="5.81268">
        <ele>226.53</ele>
        <time>2016-10-01T11:58:42Z</time>
      </trkpt>
      <trkpt lat="45.21951" lon="5.81271">
        <ele>226.53</ele>
        <time>2016-10-01T11:58:43Z</time>
      </trkpt>
      <trkpt lat="45.21951" lon="5.81274">
        <ele>226.53</ele>
        <time>2016-10-01T11:58:44Z</time>
      </trkpt>
      <trkpt lat="45.21951" lon="5.81277">
        <ele>226.53</ele>
        <time>2016-10-01T11:58:45Z</time>
      </trkpt>
      <trkpt lat="45.21951" lon="5.8128">
        <ele>226.05</ele>
        <time>2016-10-01T11:58:46Z</time>
      </trkpt>
      <trkpt lat="45.21951" lon="5.81283">
        <ele>226.05</ele>
        <time>2016-10-01T11:58:47Z</time>
      </trkpt>
      <trkpt lat="45.21952" lon="5.81287">
        <ele>226.05</ele>
        <time>2016-10-01T11:58:48Z</time>
      </trkpt>
      <trkpt lat="45.21952" lon="5.8129">
        <ele>226.05</ele>
        <time>2016-10-01T11:58:49Z</time>
      </trkpt>
      <trkpt lat="45.21952" lon="5.81293">
        <ele>226.05</ele>
        <time>2016-10-01T11:58:50Z</time>
      </trkpt>
      <trkpt lat="45.21952" lon="5.81297">
        <ele>226.05</ele>
        <time>2016-10-01T11:58:51Z</time>
      </trkpt>
      <trkpt lat="45.21953" lon="5.813">
        <ele>226.05</ele>
        <time>2016-10-01T11:58:52Z</time>
      </trkpt>
      <trkpt lat="45.21954" lon="5.81304">
        <ele>226.05</ele>
        <time>2016-10-01T11:58:53Z</time>
      </trkpt>
      <trkpt lat="45.21954" lon="5.81306">
        <ele>226.05</ele>
        <time>2016-10-01T11:58:54Z</time>
      </trkpt>
      <trkpt lat="45.21955" lon="5.8134">
        <ele>225.57</ele>
        <time>2016-10-01T11:59:05Z</time>
      </trkpt>
      <trkpt lat="45.21947" lon="5.81377">
        <ele>225.57</ele>
        <time>2016-10-01T11:59:15Z</time>
      </trkpt>
      <trkpt lat="45.21923" lon="5.81405">
        <ele>224.61</ele>
        <time>2016-10-01T11:59:27Z</time>
      </trkpt>
      <trkpt lat="45.21904" lon="5.8143">
        <ele>224.12</ele>
        <time>2016-10-01T11:59:37Z</time>
      </trkpt>
      <trkpt lat="45.21884" lon="5.81453">
        <ele>224.12</ele>
        <time>2016-10-01T11:59:48Z</time>
      </trkpt>
      <trkpt lat="45.21879" lon="5.81456">
        <ele>223.64</ele>
        <time>2016-10-01T11:59:51Z</time>
      </trkpt>
      <trkpt lat="45.21874" lon="5.81463">
        <ele>223.64</ele>
        <time>2016-10-01T11:59:55Z</time>
      </trkpt>
      <trkpt lat="45.21873" lon="5.81466">
        <ele>223.64</ele>
        <time>2016-10-01T11:59:56Z</time>
      </trkpt>
      <trkpt lat="45.21871" lon="5.81469">
        <ele>223.64</ele>
        <time>2016-10-01T11:59:57Z</time>
      </trkpt>
      <trkpt lat="45.21869" lon="5.81471">
        <ele>223.64</ele>
        <time>2016-10-01T11:59:58Z</time>
      </trkpt>
      <trkpt lat="45.21867" lon="5.81474">
        <ele>223.64</ele>
        <time>2016-10-01T11:59:59Z</time>
      </trkpt>
      <trkpt lat="45.21856" lon="5.81484">
        <ele>223.64</ele>
        <time>2016-10-01T12:00:04Z</time>
      </trkpt>
      <trkpt lat="45.21854" lon="5.81486">
        <ele>223.64</ele>
        <time>2016-10-01T12:00:05Z</time>
      </trkpt>
      <trkpt lat="45.2185" lon="5.81488">
        <ele>223.64</ele>
        <time>2016-10-01T12:00:06Z</time>
      </trkpt>
      <trkpt lat="45.21851" lon="5.81492">
        <ele>223.64</ele>
        <time>2016-10-01T12:00:07Z</time>
      </trkpt>
      <trkpt lat="45.21849" lon="5.81495">
        <ele>223.16</ele>
        <time>2016-10-01T12:00:08Z</time>
      </trkpt>
      <trkpt lat="45.21822" lon="5.81533">
        <ele>223.16</ele>
        <time>2016-10-01T12:00:23Z</time>
      </trkpt>
      <trkpt lat="45.21814" lon="5.81541">
        <ele>223.16</ele>
        <time>2016-10-01T12:00:27Z</time>
      </trkpt>
      <trkpt lat="45.21812" lon="5.81542">
        <ele>222.68</ele>
        <time>2016-10-01T12:00:28Z</time>
      </trkpt>
      <trkpt lat="45.2181" lon="5.81544">
        <ele>222.68</ele>
        <time>2016-10-01T12:00:29Z</time>
      </trkpt>
      <trkpt lat="45.21807" lon="5.81546">
        <ele>222.68</ele>
        <time>2016-10-01T12:00:30Z</time>
      </trkpt>
      <trkpt lat="45.21805" lon="5.81547">
        <ele>222.68</ele>
        <time>2016-10-01T12:00:31Z</time>
      </trkpt>
      <trkpt lat="45.21803" lon="5.81548">
        <ele>222.68</ele>
        <time>2016-10-01T12:00:32Z</time>
      </trkpt>
      <trkpt lat="45.21801" lon="5.8155">
        <ele>222.68</ele>
        <time>2016-10-01T12:00:33Z</time>
      </trkpt>
      <trkpt lat="45.21798" lon="5.81551">
        <ele>222.68</ele>
        <time>2016-10-01T12:00:34Z</time>
      </trkpt>
      <trkpt lat="45.21796" lon="5.81553">
        <ele>222.68</ele>
        <time>2016-10-01T12:00:35Z</time>
      </trkpt>
      <trkpt lat="45.21794" lon="5.81554">
        <ele>222.68</ele>
        <time>2016-10-01T12:00:36Z</time>
      </trkpt>
      <trkpt lat="45.21792" lon="5.81556">
        <ele>222.68</ele>
        <time>2016-10-01T12:00:37Z</time>
      </trkpt>
      <trkpt lat="45.21789" lon="5.81557">
        <ele>222.68</ele>
        <time>2016-10-01T12:00:38Z</time>
      </trkpt>
      <trkpt lat="45.2176" lon="5.81568">
        <ele>222.2</ele>
        <time>2016-10-01T12:00:51Z</time>
      </trkpt>
      <trkpt lat="45.21733" lon="5.81577">
        <ele>222.2</ele>
        <time>2016-10-01T12:01:02Z</time>
      </trkpt>
      <trkpt lat="45.21731" lon="5.81578">
        <ele>222.2</ele>
        <time>2016-10-01T12:01:03Z</time>
      </trkpt>
      <trkpt lat="45.21728" lon="5.81579">
        <ele>222.2</ele>
        <time>2016-10-01T12:01:04Z</time>
      </trkpt>
      <trkpt lat="45.21708" lon="5.81606">
        <ele>221.24</ele>
        <time>2016-10-01T12:01:15Z</time>
      </trkpt>
      <trkpt lat="45.21672" lon="5.81636">
        <ele>221.24</ele>
        <time>2016-10-01T12:01:35Z</time>
      </trkpt>
      <trkpt lat="45.21654" lon="5.81617">
        <ele>221.24</ele>
        <time>2016-10-01T12:01:45Z</time>
      </trkpt>
      <trkpt lat="45.21652" lon="5.81616">
        <ele>221.24</ele>
        <time>2016-10-01T12:01:46Z</time>
      </trkpt>
      <trkpt lat="45.2165" lon="5.81617">
        <ele>221.24</ele>
        <time>2016-10-01T12:01:47Z</time>
      </trkpt>
      <trkpt lat="45.21648" lon="5.81619">
        <ele>221.24</ele>
        <time>2016-10-01T12:01:48Z</time>
      </trkpt>
      <trkpt lat="45.21647" lon="5.81621">
        <ele>221.24</ele>
        <time>2016-10-01T12:01:49Z</time>
      </trkpt>
      <trkpt lat="45.21646" lon="5.81625">
        <ele>221.24</ele>
        <time>2016-10-01T12:01:50Z</time>
      </trkpt>
      <trkpt lat="45.21646" lon="5.81628">
        <ele>221.24</ele>
        <time>2016-10-01T12:01:51Z</time>
      </trkpt>
      <trkpt lat="45.21646" lon="5.81631">
        <ele>221.24</ele>
        <time>2016-10-01T12:01:52Z</time>
      </trkpt>
      <trkpt lat="45.21648" lon="5.81633">
        <ele>221.24</ele>
        <time>2016-10-01T12:01:53Z</time>
      </trkpt>
      <trkpt lat="45.21649" lon="5.81636">
        <ele>221.24</ele>
        <time>2016-10-01T12:01:54Z</time>
      </trkpt>
      <trkpt lat="45.21676" lon="5.81665">
        <ele>221.24</ele>
        <time>2016-10-01T12:02:08Z</time>
      </trkpt>
      <trkpt lat="45.217" lon="5.8169">
        <ele>221.24</ele>
        <time>2016-10-01T12:02:20Z</time>
      </trkpt>
      <trkpt lat="45.21721" lon="5.81712">
        <ele>221.24</ele>
        <time>2016-10-01T12:02:31Z</time>
      </trkpt>
      <trkpt lat="45.21746" lon="5.81737">
        <ele>221.24</ele>
        <time>2016-10-01T12:02:43Z</time>
      </trkpt>
      <trkpt lat="45.21763" lon="5.81758">
        <ele>220.76</ele>
        <time>2016-10-01T12:02:55Z</time>
      </trkpt>
      <trkpt lat="45.21785" lon="5.81778">
        <ele>222.2</ele>
        <time>2016-10-01T12:03:05Z</time>
      </trkpt>
      <trkpt lat="45.21813" lon="5.81802">
        <ele>222.2</ele>
        <time>2016-10-01T12:03:17Z</time>
      </trkpt>
      <trkpt lat="45.21836" lon="5.81824">
        <ele>221.72</ele>
        <time>2016-10-01T12:03:28Z</time>
      </trkpt>
      <trkpt lat="45.21851" lon="5.81839">
        <ele>221.72</ele>
        <time>2016-10-01T12:03:36Z</time>
      </trkpt>
      <trkpt lat="45.21877" lon="5.81864">
        <ele>221.72</ele>
        <time>2016-10-01T12:03:49Z</time>
      </trkpt>
      <trkpt lat="45.21902" lon="5.81885">
        <ele>221.72</ele>
        <time>2016-10-01T12:04:01Z</time>
      </trkpt>
      <trkpt lat="45.21926" lon="5.8191">
        <ele>221.24</ele>
        <time>2016-10-01T12:04:13Z</time>
      </trkpt>
      <trkpt lat="45.21952" lon="5.81934">
        <ele>221.24</ele>
        <time>2016-10-01T12:04:25Z</time>
      </trkpt>
      <trkpt lat="45.21984" lon="5.81965">
        <ele>221.72</ele>
        <time>2016-10-01T12:04:41Z</time>
      </trkpt>
      <trkpt lat="45.22008" lon="5.81989">
        <ele>221.24</ele>
        <time>2016-10-01T12:04:53Z</time>
      </trkpt>
      <trkpt lat="45.22039" lon="5.82022">
        <ele>221.24</ele>
        <time>2016-10-01T12:05:08Z</time>
      </trkpt>
      <trkpt lat="45.22067" lon="5.82049">
        <ele>221.24</ele>
        <time>2016-10-01T12:05:21Z</time>
      </trkpt>
      <trkpt lat="45.22094" lon="5.82077">
        <ele>221.72</ele>
        <time>2016-10-01T12:05:34Z</time>
      </trkpt>
      <trkpt lat="45.22105" lon="5.82096">
        <ele>222.2</ele>
        <time>2016-10-01T12:05:41Z</time>
      </trkpt>
      <trkpt lat="45.22105" lon="5.82098">
        <ele>222.2</ele>
        <time>2016-10-01T12:05:42Z</time>
      </trkpt>
      <trkpt lat="45.22105" lon="5.82101">
        <ele>222.2</ele>
        <time>2016-10-01T12:05:43Z</time>
      </trkpt>
      <trkpt lat="45.22105" lon="5.82104">
        <ele>222.2</ele>
        <time>2016-10-01T12:05:44Z</time>
      </trkpt>
      <trkpt lat="45.22104" lon="5.82106">
        <ele>222.2</ele>
        <time>2016-10-01T12:05:45Z</time>
      </trkpt>
      <trkpt lat="45.22103" lon="5.82108">
        <ele>222.2</ele>
        <time>2016-10-01T12:05:46Z</time>
      </trkpt>
      <trkpt lat="45.22102" lon="5.82109">
        <ele>222.2</ele>
        <time>2016-10-01T12:05:47Z</time>
      </trkpt>
      <trkpt lat="45.22101" lon="5.82111">
        <ele>222.2</ele>
        <time>2016-10-01T12:05:48Z</time>
      </trkpt>
      <trkpt lat="45.221" lon="5.82112">
        <ele>222.2</ele>
        <time>2016-10-01T12:05:49Z</time>
      </trkpt>
      <trkpt lat="45.22084" lon="5.82123">
        <ele>222.2</ele>
        <time>2016-10-01T12:05:57Z</time>
      </trkpt>
      <trkpt lat="45.2206" lon="5.8214">
        <ele>220.76</ele>
        <time>2016-10-01T12:06:07Z</time>
      </trkpt>
      <trkpt lat="45.22058" lon="5.82141">
        <ele>220.76</ele>
        <time>2016-10-01T12:06:08Z</time>
      </trkpt>
      <trkpt lat="45.22033" lon="5.82158">
        <ele>220.76</ele>
        <time>2016-10-01T12:06:19Z</time>
      </trkpt>
      <trkpt lat="45.2201" lon="5.82174">
        <ele>220.28</ele>
        <time>2016-10-01T12:06:30Z</time>
      </trkpt>
      <trkpt lat="45.21982" lon="5.82192">
        <ele>220.28</ele>
        <time>2016-10-01T12:06:42Z</time>
      </trkpt>
      <trkpt lat="45.21952" lon="5.82208">
        <ele>219.8</ele>
        <time>2016-10-01T12:06:54Z</time>
      </trkpt>
      <trkpt lat="45.21931" lon="5.82217">
        <ele>219.8</ele>
        <time>2016-10-01T12:07:05Z</time>
      </trkpt>
      <trkpt lat="45.21928" lon="5.82217">
        <ele>219.8</ele>
        <time>2016-10-01T12:07:06Z</time>
      </trkpt>
      <trkpt lat="45.21926" lon="5.82218">
        <ele>219.8</ele>
        <time>2016-10-01T12:07:07Z</time>
      </trkpt>
      <trkpt lat="45.21923" lon="5.82218">
        <ele>219.8</ele>
        <time>2016-10-01T12:07:08Z</time>
      </trkpt>
      <trkpt lat="45.21921" lon="5.8222">
        <ele>219.8</ele>
        <time>2016-10-01T12:07:09Z</time>
      </trkpt>
      <trkpt lat="45.21919" lon="5.82223">
        <ele>219.8</ele>
        <time>2016-10-01T12:07:10Z</time>
      </trkpt>
      <trkpt lat="45.21917" lon="5.82226">
        <ele>219.8</ele>
        <time>2016-10-01T12:07:11Z</time>
      </trkpt>
      <trkpt lat="45.21914" lon="5.82229">
        <ele>219.8</ele>
        <time>2016-10-01T12:07:12Z</time>
      </trkpt>
      <trkpt lat="45.21896" lon="5.82248">
        <ele>221.24</ele>
        <time>2016-10-01T12:07:19Z</time>
      </trkpt>
      <trkpt lat="45.21891" lon="5.82251">
        <ele>221.24</ele>
        <time>2016-10-01T12:07:21Z</time>
      </trkpt>
      <trkpt lat="45.21889" lon="5.82251">
        <ele>221.24</ele>
        <time>2016-10-01T12:07:22Z</time>
      </trkpt>
      <trkpt lat="45.21886" lon="5.82252">
        <ele>221.24</ele>
        <time>2016-10-01T12:07:23Z</time>
      </trkpt>
      <trkpt lat="45.21884" lon="5.82253">
        <ele>221.24</ele>
        <time>2016-10-01T12:07:24Z</time>
      </trkpt>
      <trkpt lat="45.21882" lon="5.82254">
        <ele>221.24</ele>
        <time>2016-10-01T12:07:25Z</time>
      </trkpt>
      <trkpt lat="45.21856" lon="5.82265">
        <ele>220.76</ele>
        <time>2016-10-01T12:07:35Z</time>
      </trkpt>
      <trkpt lat="45.2183" lon="5.82281">
        <ele>220.76</ele>
        <time>2016-10-01T12:07:45Z</time>
      </trkpt>
      <trkpt lat="45.21798" lon="5.82301">
        <ele>219.32</ele>
        <time>2016-10-01T12:07:57Z</time>
      </trkpt>
      <trkpt lat="45.21791" lon="5.82304">
        <ele>219.32</ele>
        <time>2016-10-01T12:08:00Z</time>
      </trkpt>
      <trkpt lat="45.21789" lon="5.82302">
        <ele>219.32</ele>
        <time>2016-10-01T12:08:01Z</time>
      </trkpt>
      <trkpt lat="45.21787" lon="5.82301">
        <ele>219.32</ele>
        <time>2016-10-01T12:08:02Z</time>
      </trkpt>
      <trkpt lat="45.21785" lon="5.82298">
        <ele>219.32</ele>
        <time>2016-10-01T12:08:03Z</time>
      </trkpt>
      <trkpt lat="45.21783" lon="5.82296">
        <ele>218.84</ele>
        <time>2016-10-01T12:08:04Z</time>
      </trkpt>
      <trkpt lat="45.21781" lon="5.82293">
        <ele>218.84</ele>
        <time>2016-10-01T12:08:05Z</time>
      </trkpt>
      <trkpt lat="45.21779" lon="5.82291">
        <ele>218.84</ele>
        <time>2016-10-01T12:08:06Z</time>
      </trkpt>
      <trkpt lat="45.21778" lon="5.8229">
        <ele>218.84</ele>
        <time>2016-10-01T12:08:07Z</time>
      </trkpt>
      <trkpt lat="45.21776" lon="5.82288">
        <ele>218.84</ele>
        <time>2016-10-01T12:08:08Z</time>
      </trkpt>
      <trkpt lat="45.21775" lon="5.82285">
        <ele>218.84</ele>
        <time>2016-10-01T12:08:09Z</time>
      </trkpt>
      <trkpt lat="45.21748" lon="5.82267">
        <ele>218.36</ele>
        <time>2016-10-01T12:08:22Z</time>
      </trkpt>
      <trkpt lat="45.21727" lon="5.82265">
        <ele>217.88</ele>
        <time>2016-10-01T12:08:34Z</time>
      </trkpt>
      <trkpt lat="45.21726" lon="5.82266">
        <ele>217.88</ele>
        <time>2016-10-01T12:08:35Z</time>
      </trkpt>
      <trkpt lat="45.21724" lon="5.82267">
        <ele>217.4</ele>
        <time>2016-10-01T12:08:36Z</time>
      </trkpt>
      <trkpt lat="45.21722" lon="5.82268">
        <ele>217.4</ele>
        <time>2016-10-01T12:08:37Z</time>
      </trkpt>
      <trkpt lat="45.2172" lon="5.82269">
        <ele>217.4</ele>
        <time>2016-10-01T12:08:38Z</time>
      </trkpt>
      <trkpt lat="45.21718" lon="5.82269">
        <ele>217.4</ele>
        <time>2016-10-01T12:08:39Z</time>
      </trkpt>
      <trkpt lat="45.21716" lon="5.82269">
        <ele>217.4</ele>
        <time>2016-10-01T12:08:40Z</time>
      </trkpt>
      <trkpt lat="45.21715" lon="5.8227">
        <ele>217.4</ele>
        <time>2016-10-01T12:08:41Z</time>
      </trkpt>
      <trkpt lat="45.21713" lon="5.82271">
        <ele>217.4</ele>
        <time>2016-10-01T12:08:42Z</time>
      </trkpt>
      <trkpt lat="45.21711" lon="5.82271">
        <ele>217.4</ele>
        <time>2016-10-01T12:08:43Z</time>
      </trkpt>
      <trkpt lat="45.2171" lon="5.82272">
        <ele>217.4</ele>
        <time>2016-10-01T12:08:44Z</time>
      </trkpt>
      <trkpt lat="45.21708" lon="5.82273">
        <ele>217.4</ele>
        <time>2016-10-01T12:08:45Z</time>
      </trkpt>
      <trkpt lat="45.21706" lon="5.82274">
        <ele>217.4</ele>
        <time>2016-10-01T12:08:46Z</time>
      </trkpt>
      <trkpt lat="45.21689" lon="5.82282">
        <ele>216.91</ele>
        <time>2016-10-01T12:08:56Z</time>
      </trkpt>
      <trkpt lat="45.21665" lon="5.82293">
        <ele>216.91</ele>
        <time>2016-10-01T12:09:09Z</time>
      </trkpt>
      <trkpt lat="45.21663" lon="5.82295">
        <ele>216.91</ele>
        <time>2016-10-01T12:09:10Z</time>
      </trkpt>
      <trkpt lat="45.21661" lon="5.82296">
        <ele>216.91</ele>
        <time>2016-10-01T12:09:11Z</time>
      </trkpt>
      <trkpt lat="45.21659" lon="5.82298">
        <ele>216.91</ele>
        <time>2016-10-01T12:09:12Z</time>
      </trkpt>
      <trkpt lat="45.21657" lon="5.82299">
        <ele>216.91</ele>
        <time>2016-10-01T12:09:13Z</time>
      </trkpt>
      <trkpt lat="45.21653" lon="5.82299">
        <ele>216.91</ele>
        <time>2016-10-01T12:09:14Z</time>
      </trkpt>
      <trkpt lat="45.21646" lon="5.82301">
        <ele>216.91</ele>
        <time>2016-10-01T12:09:17Z</time>
      </trkpt>
      <trkpt lat="45.21614" lon="5.82283">
        <ele>216.43</ele>
        <time>2016-10-01T12:09:27Z</time>
      </trkpt>
      <trkpt lat="45.21597" lon="5.82254">
        <ele>216.43</ele>
        <time>2016-10-01T12:09:38Z</time>
      </trkpt>
      <trkpt lat="45.21586" lon="5.82233">
        <ele>215.95</ele>
        <time>2016-10-01T12:09:45Z</time>
      </trkpt>
      <trkpt lat="45.21584" lon="5.82231">
        <ele>215.95</ele>
        <time>2016-10-01T12:09:46Z</time>
      </trkpt>
      <trkpt lat="45.21582" lon="5.8223">
        <ele>215.95</ele>
        <time>2016-10-01T12:09:47Z</time>
      </trkpt>
      <trkpt lat="45.2158" lon="5.82229">
        <ele>215.95</ele>
        <time>2016-10-01T12:09:48Z</time>
      </trkpt>
      <trkpt lat="45.21579" lon="5.82229">
        <ele>215.95</ele>
        <time>2016-10-01T12:09:49Z</time>
      </trkpt>
      <trkpt lat="45.21577" lon="5.82228">
        <ele>215.95</ele>
        <time>2016-10-01T12:09:50Z</time>
      </trkpt>
      <trkpt lat="45.21555" lon="5.82239">
        <ele>215.95</ele>
        <time>2016-10-01T12:10:02Z</time>
      </trkpt>
      <trkpt lat="45.21536" lon="5.82261">
        <ele>215.95</ele>
        <time>2016-10-01T12:10:12Z</time>
      </trkpt>
      <trkpt lat="45.21526" lon="5.82278">
        <ele>215.47</ele>
        <time>2016-10-01T12:10:18Z</time>
      </trkpt>
      <trkpt lat="45.21524" lon="5.82281">
        <ele>215.47</ele>
        <time>2016-10-01T12:10:19Z</time>
      </trkpt>
      <trkpt lat="45.21522" lon="5.82284">
        <ele>215.47</ele>
        <time>2016-10-01T12:10:20Z</time>
      </trkpt>
      <trkpt lat="45.21507" lon="5.82315">
        <ele>214.99</ele>
        <time>2016-10-01T12:10:31Z</time>
      </trkpt>
      <trkpt lat="45.21505" lon="5.82322">
        <ele>214.99</ele>
        <time>2016-10-01T12:10:34Z</time>
      </trkpt>
      <trkpt lat="45.21489" lon="5.82346">
        <ele>214.99</ele>
        <time>2016-10-01T12:10:45Z</time>
      </trkpt>
      <trkpt lat="45.21462" lon="5.82358">
        <ele>214.99</ele>
        <time>2016-10-01T12:10:58Z</time>
      </trkpt>
      <trkpt lat="45.21431" lon="5.82366">
        <ele>214.99</ele>
        <time>2016-10-01T12:11:09Z</time>
      </trkpt>
      <trkpt lat="45.21395" lon="5.82367">
        <ele>214.99</ele>
        <time>2016-10-01T12:11:22Z</time>
      </trkpt>
      <trkpt lat="45.21364" lon="5.82365">
        <ele>214.99</ele>
        <time>2016-10-01T12:11:35Z</time>
      </trkpt>
      <trkpt lat="45.21332" lon="5.82362">
        <ele>214.99</ele>
        <time>2016-10-01T12:11:48Z</time>
      </trkpt>
      <trkpt lat="45.21302" lon="5.82358">
        <ele>214.99</ele>
        <time>2016-10-01T12:12:01Z</time>
      </trkpt>
      <trkpt lat="45.21268" lon="5.82353">
        <ele>214.51</ele>
        <time>2016-10-01T12:12:16Z</time>
      </trkpt>
      <trkpt lat="45.21236" lon="5.82349">
        <ele>214.51</ele>
        <time>2016-10-01T12:12:31Z</time>
      </trkpt>
      <trkpt lat="45.21226" lon="5.82342">
        <ele>214.51</ele>
        <time>2016-10-01T12:12:35Z</time>
      </trkpt>
      <trkpt lat="45.21194" lon="5.82305">
        <ele>214.03</ele>
        <time>2016-10-01T12:12:49Z</time>
      </trkpt>
      <trkpt lat="45.21169" lon="5.82265">
        <ele>214.03</ele>
        <time>2016-10-01T12:13:02Z</time>
      </trkpt>
      <trkpt lat="45.21148" lon="5.8223">
        <ele>214.03</ele>
        <time>2016-10-01T12:13:13Z</time>
      </trkpt>
      <trkpt lat="45.21156" lon="5.822">
        <ele>214.03</ele>
        <time>2016-10-01T12:13:23Z</time>
      </trkpt>
      <trkpt lat="45.21177" lon="5.82172">
        <ele>214.03</ele>
        <time>2016-10-01T12:13:35Z</time>
      </trkpt>
      <trkpt lat="45.21199" lon="5.82146">
        <ele>214.03</ele>
        <time>2016-10-01T12:13:47Z</time>
      </trkpt>
      <trkpt lat="45.21219" lon="5.82124">
        <ele>214.03</ele>
        <time>2016-10-01T12:13:58Z</time>
      </trkpt>
      <trkpt lat="45.21245" lon="5.82093">
        <ele>214.03</ele>
        <time>2016-10-01T12:14:12Z</time>
      </trkpt>
      <trkpt lat="45.2126" lon="5.82058">
        <ele>214.03</ele>
        <time>2016-10-01T12:14:23Z</time>
      </trkpt>
      <trkpt lat="45.21263" lon="5.82026">
        <ele>214.03</ele>
        <time>2016-10-01T12:14:32Z</time>
      </trkpt>
      <trkpt lat="45.21265" lon="5.82023">
        <ele>214.03</ele>
        <time>2016-10-01T12:14:33Z</time>
      </trkpt>
      <trkpt lat="45.21266" lon="5.82021">
        <ele>214.03</ele>
        <time>2016-10-01T12:14:34Z</time>
      </trkpt>
      <trkpt lat="45.21268" lon="5.82018">
        <ele>214.03</ele>
        <time>2016-10-01T12:14:35Z</time>
      </trkpt>
      <trkpt lat="45.2127" lon="5.82015">
        <ele>214.03</ele>
        <time>2016-10-01T12:14:36Z</time>
      </trkpt>
      <trkpt lat="45.21272" lon="5.82013">
        <ele>214.03</ele>
        <time>2016-10-01T12:14:37Z</time>
      </trkpt>
      <trkpt lat="45.21294" lon="5.8199">
        <ele>214.03</ele>
        <time>2016-10-01T12:14:48Z</time>
      </trkpt>
      <trkpt lat="45.21314" lon="5.8197">
        <ele>214.03</ele>
        <time>2016-10-01T12:14:59Z</time>
      </trkpt>
      <trkpt lat="45.21321" lon="5.8196">
        <ele>214.03</ele>
        <time>2016-10-01T12:15:04Z</time>
      </trkpt>
      <trkpt lat="45.21323" lon="5.81958">
        <ele>214.03</ele>
        <time>2016-10-01T12:15:05Z</time>
      </trkpt>
      <trkpt lat="45.21325" lon="5.81956">
        <ele>214.03</ele>
        <time>2016-10-01T12:15:06Z</time>
      </trkpt>
      <trkpt lat="45.21327" lon="5.81953">
        <ele>214.03</ele>
        <time>2016-10-01T12:15:07Z</time>
      </trkpt>
      <trkpt lat="45.21329" lon="5.81951">
        <ele>214.03</ele>
        <time>2016-10-01T12:15:08Z</time>
      </trkpt>
      <trkpt lat="45.21332" lon="5.81949">
        <ele>214.03</ele>
        <time>2016-10-01T12:15:09Z</time>
      </trkpt>
      <trkpt lat="45.21333" lon="5.81947">
        <ele>214.03</ele>
        <time>2016-10-01T12:15:10Z</time>
      </trkpt>
      <trkpt lat="45.2136" lon="5.81916">
        <ele>214.03</ele>
        <time>2016-10-01T12:15:24Z</time>
      </trkpt>
      <trkpt lat="45.21384" lon="5.81891">
        <ele>214.03</ele>
        <time>2016-10-01T12:15:35Z</time>
      </trkpt>
      <trkpt lat="45.21412" lon="5.81858">
        <ele>214.03</ele>
        <time>2016-10-01T12:15:50Z</time>
      </trkpt>
      <trkpt lat="45.21436" lon="5.8183">
        <ele>214.03</ele>
        <time>2016-10-01T12:16:02Z</time>
      </trkpt>
      <trkpt lat="45.21464" lon="5.81796">
        <ele>214.99</ele>
        <time>2016-10-01T12:16:16Z</time>
      </trkpt>
      <trkpt lat="45.2149" lon="5.81764">
        <ele>214.99</ele>
        <time>2016-10-01T12:16:29Z</time>
      </trkpt>
      <trkpt lat="45.21514" lon="5.81733">
        <ele>214.99</ele>
        <time>2016-10-01T12:16:42Z</time>
      </trkpt>
      <trkpt lat="45.21537" lon="5.81705">
        <ele>215.47</ele>
        <time>2016-10-01T12:16:54Z</time>
      </trkpt>
      <trkpt lat="45.2156" lon="5.81684">
        <ele>215.47</ele>
        <time>2016-10-01T12:17:06Z</time>
      </trkpt>
      <trkpt lat="45.21585" lon="5.81661">
        <ele>215.47</ele>
        <time>2016-10-01T12:17:19Z</time>
      </trkpt>
      <trkpt lat="45.21605" lon="5.81641">
        <ele>215.47</ele>
        <time>2016-10-01T12:17:29Z</time>
      </trkpt>
      <trkpt lat="45.21631" lon="5.81621">
        <ele>215.47</ele>
        <time>2016-10-01T12:17:41Z</time>
      </trkpt>
      <trkpt lat="45.21649" lon="5.81617">
        <ele>216.43</ele>
        <time>2016-10-01T12:17:48Z</time>
      </trkpt>
      <trkpt lat="45.21652" lon="5.81618">
        <ele>215.95</ele>
        <time>2016-10-01T12:17:49Z</time>
      </trkpt>
      <trkpt lat="45.21655" lon="5.81619">
        <ele>215.95</ele>
        <time>2016-10-01T12:17:50Z</time>
      </trkpt>
      <trkpt lat="45.21657" lon="5.81621">
        <ele>215.95</ele>
        <time>2016-10-01T12:17:51Z</time>
      </trkpt>
      <trkpt lat="45.21659" lon="5.81622">
        <ele>215.95</ele>
        <time>2016-10-01T12:17:52Z</time>
      </trkpt>
      <trkpt lat="45.21691" lon="5.81636">
        <ele>215.95</ele>
        <time>2016-10-01T12:18:07Z</time>
      </trkpt>
      <trkpt lat="45.21716" lon="5.81587">
        <ele>215.95</ele>
        <time>2016-10-01T12:18:25Z</time>
      </trkpt>
      <trkpt lat="45.21722" lon="5.8158">
        <ele>215.95</ele>
        <time>2016-10-01T12:18:29Z</time>
      </trkpt>
      <trkpt lat="45.21724" lon="5.81582">
        <ele>215.95</ele>
        <time>2016-10-01T12:18:30Z</time>
      </trkpt>
      <trkpt lat="45.21725" lon="5.81584">
        <ele>215.95</ele>
        <time>2016-10-01T12:18:31Z</time>
      </trkpt>
      <trkpt lat="45.21727" lon="5.81585">
        <ele>216.91</ele>
        <time>2016-10-01T12:18:32Z</time>
      </trkpt>
      <trkpt lat="45.21729" lon="5.81587">
        <ele>216.91</ele>
        <time>2016-10-01T12:18:33Z</time>
      </trkpt>
      <trkpt lat="45.21762" lon="5.81613">
        <ele>216.91</ele>
        <time>2016-10-01T12:18:47Z</time>
      </trkpt>
      <trkpt lat="45.21787" lon="5.81639">
        <ele>216.91</ele>
        <time>2016-10-01T12:18:59Z</time>
      </trkpt>
      <trkpt lat="45.21811" lon="5.81663">
        <ele>216.91</ele>
        <time>2016-10-01T12:19:11Z</time>
      </trkpt>
      <trkpt lat="45.21844" lon="5.81693">
        <ele>216.91</ele>
        <time>2016-10-01T12:19:26Z</time>
      </trkpt>
      <trkpt lat="45.21872" lon="5.8172">
        <ele>216.91</ele>
        <time>2016-10-01T12:19:39Z</time>
      </trkpt>
      <trkpt lat="45.21899" lon="5.81744">
        <ele>216.91</ele>
        <time>2016-10-01T12:19:52Z</time>
      </trkpt>
      <trkpt lat="45.21924" lon="5.81767">
        <ele>216.91</ele>
        <time>2016-10-01T12:20:04Z</time>
      </trkpt>
      <trkpt lat="45.2195" lon="5.8179">
        <ele>216.91</ele>
        <time>2016-10-01T12:20:16Z</time>
      </trkpt>
      <trkpt lat="45.21979" lon="5.81813">
        <ele>216.43</ele>
        <time>2016-10-01T12:20:29Z</time>
      </trkpt>
      <trkpt lat="45.22006" lon="5.81834">
        <ele>216.43</ele>
        <time>2016-10-01T12:20:41Z</time>
      </trkpt>
      <trkpt lat="45.22031" lon="5.81858">
        <ele>216.43</ele>
        <time>2016-10-01T12:20:54Z</time>
      </trkpt>
      <trkpt lat="45.22057" lon="5.81881">
        <ele>215.95</ele>
        <time>2016-10-01T12:21:07Z</time>
      </trkpt>
      <trkpt lat="45.22084" lon="5.81907">
        <ele>215.95</ele>
        <time>2016-10-01T12:21:20Z</time>
      </trkpt>
      <trkpt lat="45.22117" lon="5.81932">
        <ele>215.47</ele>
        <time>2016-10-01T12:21:35Z</time>
      </trkpt>
      <trkpt lat="45.22148" lon="5.81959">
        <ele>214.99</ele>
        <time>2016-10-01T12:21:49Z</time>
      </trkpt>
      <trkpt lat="45.22175" lon="5.81982">
        <ele>214.99</ele>
        <time>2016-10-01T12:22:02Z</time>
      </trkpt>
      <trkpt lat="45.22198" lon="5.82">
        <ele>214.51</ele>
        <time>2016-10-01T12:22:14Z</time>
      </trkpt>
      <trkpt lat="45.22218" lon="5.82017">
        <ele>214.03</ele>
        <time>2016-10-01T12:22:25Z</time>
      </trkpt>
      <trkpt lat="45.22244" lon="5.82048">
        <ele>214.03</ele>
        <time>2016-10-01T12:22:39Z</time>
      </trkpt>
      <trkpt lat="45.22271" lon="5.82062">
        <ele>214.03</ele>
        <time>2016-10-01T12:22:52Z</time>
      </trkpt>
      <trkpt lat="45.22301" lon="5.82072">
        <ele>213.55</ele>
        <time>2016-10-01T12:23:06Z</time>
      </trkpt>
      <trkpt lat="45.2232" lon="5.82078">
        <ele>213.55</ele>
        <time>2016-10-01T12:23:15Z</time>
      </trkpt>
      <trkpt lat="45.22327" lon="5.82079">
        <ele>213.55</ele>
        <time>2016-10-01T12:23:21Z</time>
      </trkpt>
      <trkpt lat="45.22336" lon="5.82072">
        <ele>214.03</ele>
        <time>2016-10-01T12:23:25Z</time>
      </trkpt>
      <trkpt lat="45.22375" lon="5.82014">
        <ele>215.47</ele>
        <time>2016-10-01T12:23:47Z</time>
      </trkpt>
      <trkpt lat="45.22395" lon="5.81983">
        <ele>215.95</ele>
        <time>2016-10-01T12:23:58Z</time>
      </trkpt>
      <trkpt lat="45.22392" lon="5.81961">
        <ele>214.51</ele>
        <time>2016-10-01T12:24:04Z</time>
      </trkpt>
      <trkpt lat="45.22386" lon="5.81918">
        <ele>213.55</ele>
        <time>2016-10-01T12:24:16Z</time>
      </trkpt>
      <trkpt lat="45.22381" lon="5.81879">
        <ele>213.07</ele>
        <time>2016-10-01T12:24:27Z</time>
      </trkpt>
      <trkpt lat="45.2239" lon="5.81845">
        <ele>213.07</ele>
        <time>2016-10-01T12:24:39Z</time>
      </trkpt>
      <trkpt lat="45.22389" lon="5.81842">
        <ele>213.07</ele>
        <time>2016-10-01T12:24:40Z</time>
      </trkpt>
      <trkpt lat="45.22388" lon="5.81839">
        <ele>213.07</ele>
        <time>2016-10-01T12:24:41Z</time>
      </trkpt>
      <trkpt lat="45.22386" lon="5.81836">
        <ele>213.07</ele>
        <time>2016-10-01T12:24:42Z</time>
      </trkpt>
      <trkpt lat="45.22384" lon="5.81834">
        <ele>213.07</ele>
        <time>2016-10-01T12:24:43Z</time>
      </trkpt>
      <trkpt lat="45.22382" lon="5.81832">
        <ele>213.07</ele>
        <time>2016-10-01T12:24:44Z</time>
      </trkpt>
      <trkpt lat="45.2238" lon="5.8183">
        <ele>212.59</ele>
        <time>2016-10-01T12:24:45Z</time>
      </trkpt>
      <trkpt lat="45.22378" lon="5.81828">
        <ele>212.59</ele>
        <time>2016-10-01T12:24:46Z</time>
      </trkpt>
      <trkpt lat="45.22353" lon="5.81801">
        <ele>212.11</ele>
        <time>2016-10-01T12:24:59Z</time>
      </trkpt>
      <trkpt lat="45.2234" lon="5.81788">
        <ele>212.11</ele>
        <time>2016-10-01T12:25:06Z</time>
      </trkpt>
      <trkpt lat="45.22332" lon="5.81793">
        <ele>212.11</ele>
        <time>2016-10-01T12:25:11Z</time>
      </trkpt>
      <trkpt lat="45.22312" lon="5.8182">
        <ele>212.11</ele>
        <time>2016-10-01T12:25:23Z</time>
      </trkpt>
      <trkpt lat="45.22294" lon="5.81853">
        <ele>211.63</ele>
        <time>2016-10-01T12:25:35Z</time>
      </trkpt>
      <trkpt lat="45.22291" lon="5.81857">
        <ele>211.63</ele>
        <time>2016-10-01T12:25:37Z</time>
      </trkpt>
      <trkpt lat="45.22273" lon="5.8184">
        <ele>211.63</ele>
        <time>2016-10-01T12:25:49Z</time>
      </trkpt>
      <trkpt lat="45.22273" lon="5.81835">
        <ele>211.63</ele>
        <time>2016-10-01T12:25:51Z</time>
      </trkpt>
      <trkpt lat="45.22273" lon="5.81832">
        <ele>211.63</ele>
        <time>2016-10-01T12:25:52Z</time>
      </trkpt>
      <trkpt lat="45.22273" lon="5.81829">
        <ele>211.63</ele>
        <time>2016-10-01T12:25:53Z</time>
      </trkpt>
      <trkpt lat="45.22273" lon="5.81826">
        <ele>211.63</ele>
        <time>2016-10-01T12:25:54Z</time>
      </trkpt>
      <trkpt lat="45.22257" lon="5.81796">
        <ele>211.63</ele>
        <time>2016-10-01T12:26:05Z</time>
      </trkpt>
      <trkpt lat="45.2223" lon="5.81769">
        <ele>211.63</ele>
        <time>2016-10-01T12:26:17Z</time>
      </trkpt>
      <trkpt lat="45.22202" lon="5.81745">
        <ele>211.63</ele>
        <time>2016-10-01T12:26:30Z</time>
      </trkpt>
      <trkpt lat="45.22167" lon="5.81715">
        <ele>210.67</ele>
        <time>2016-10-01T12:26:46Z</time>
      </trkpt>
      <trkpt lat="45.22141" lon="5.81704">
        <ele>210.67</ele>
        <time>2016-10-01T12:26:58Z</time>
      </trkpt>
      <trkpt lat="45.22137" lon="5.81703">
        <ele>210.67</ele>
        <time>2016-10-01T12:27:00Z</time>
      </trkpt>
      <trkpt lat="45.22111" lon="5.81724">
        <ele>210.67</ele>
        <time>2016-10-01T12:27:12Z</time>
      </trkpt>
      <trkpt lat="45.22109" lon="5.81726">
        <ele>210.67</ele>
        <time>2016-10-01T12:27:13Z</time>
      </trkpt>
      <trkpt lat="45.22107" lon="5.81727">
        <ele>210.67</ele>
        <time>2016-10-01T12:27:14Z</time>
      </trkpt>
      <trkpt lat="45.22105" lon="5.81728">
        <ele>210.67</ele>
        <time>2016-10-01T12:27:15Z</time>
      </trkpt>
      <trkpt lat="45.22103" lon="5.8173">
        <ele>210.67</ele>
        <time>2016-10-01T12:27:16Z</time>
      </trkpt>
      <trkpt lat="45.22101" lon="5.81732">
        <ele>210.67</ele>
        <time>2016-10-01T12:27:17Z</time>
      </trkpt>
      <trkpt lat="45.22099" lon="5.81734">
        <ele>210.67</ele>
        <time>2016-10-01T12:27:18Z</time>
      </trkpt>
      <trkpt lat="45.22078" lon="5.81756">
        <ele>211.63</ele>
        <time>2016-10-01T12:27:28Z</time>
      </trkpt>
      <trkpt lat="45.22061" lon="5.81737">
        <ele>211.63</ele>
        <time>2016-10-01T12:27:38Z</time>
      </trkpt>
      <trkpt lat="45.22045" lon="5.81709">
        <ele>211.63</ele>
        <time>2016-10-01T12:27:48Z</time>
      </trkpt>
      <trkpt lat="45.22032" lon="5.81688">
        <ele>211.63</ele>
        <time>2016-10-01T12:27:56Z</time>
      </trkpt>
      <trkpt lat="45.22016" lon="5.81659">
        <ele>211.63</ele>
        <time>2016-10-01T12:28:08Z</time>
      </trkpt>
      <trkpt lat="45.22006" lon="5.81641">
        <ele>211.63</ele>
        <time>2016-10-01T12:28:15Z</time>
      </trkpt>
      <trkpt lat="45.22005" lon="5.81639">
        <ele>211.63</ele>
        <time>2016-10-01T12:28:16Z</time>
      </trkpt>
      <trkpt lat="45.22005" lon="5.81637">
        <ele>211.63</ele>
        <time>2016-10-01T12:28:17Z</time>
      </trkpt>
      <trkpt lat="45.22006" lon="5.81633">
        <ele>211.63</ele>
        <time>2016-10-01T12:28:19Z</time>
      </trkpt>
      <trkpt lat="45.22023" lon="5.81615">
        <ele>213.07</ele>
        <time>2016-10-01T12:28:32Z</time>
      </trkpt>
      <trkpt lat="45.22025" lon="5.81611">
        <ele>213.07</ele>
        <time>2016-10-01T12:28:34Z</time>
      </trkpt>
      <trkpt lat="45.2203" lon="5.81606">
        <ele>213.07</ele>
        <time>2016-10-01T12:28:37Z</time>
      </trkpt>
      <trkpt lat="45.22053" lon="5.81596">
        <ele>211.63</ele>
        <time>2016-10-01T12:28:51Z</time>
      </trkpt>
      <trkpt lat="45.22061" lon="5.81593">
        <ele>211.63</ele>
        <time>2016-10-01T12:28:57Z</time>
      </trkpt>
      <trkpt lat="45.22072" lon="5.81587">
        <ele>211.63</ele>
        <time>2016-10-01T12:29:02Z</time>
      </trkpt>
      <trkpt lat="45.22096" lon="5.81581">
        <ele>212.59</ele>
        <time>2016-10-01T12:29:11Z</time>
      </trkpt>
      <trkpt lat="45.22109" lon="5.81577">
        <ele>212.59</ele>
        <time>2016-10-01T12:29:17Z</time>
      </trkpt>
      <trkpt lat="45.22136" lon="5.81581">
        <ele>214.51</ele>
        <time>2016-10-01T12:29:29Z</time>
      </trkpt>
      <trkpt lat="45.22152" lon="5.81585">
        <ele>214.51</ele>
        <time>2016-10-01T12:29:36Z</time>
      </trkpt>
      <trkpt lat="45.22175" lon="5.81582">
        <ele>216.43</ele>
        <time>2016-10-01T12:29:45Z</time>
      </trkpt>
      <trkpt lat="45.22174" lon="5.81576">
        <ele>216.43</ele>
        <time>2016-10-01T12:29:47Z</time>
      </trkpt>
      <trkpt lat="45.22162" lon="5.81536">
        <ele>216.91</ele>
        <time>2016-10-01T12:30:00Z</time>
      </trkpt>
      <trkpt lat="45.22144" lon="5.81494">
        <ele>214.99</ele>
        <time>2016-10-01T12:30:13Z</time>
      </trkpt>
      <trkpt lat="45.22143" lon="5.81488">
        <ele>214.99</ele>
        <time>2016-10-01T12:30:15Z</time>
      </trkpt>
      <trkpt lat="45.22142" lon="5.81485">
        <ele>214.99</ele>
        <time>2016-10-01T12:30:16Z</time>
      </trkpt>
      <trkpt lat="45.22141" lon="5.81482">
        <ele>214.99</ele>
        <time>2016-10-01T12:30:17Z</time>
      </trkpt>
      <trkpt lat="45.2214" lon="5.81479">
        <ele>214.99</ele>
        <time>2016-10-01T12:30:18Z</time>
      </trkpt>
      <trkpt lat="45.22139" lon="5.81477">
        <ele>214.99</ele>
        <time>2016-10-01T12:30:19Z</time>
      </trkpt>
      <trkpt lat="45.22137" lon="5.81475">
        <ele>214.99</ele>
        <time>2016-10-01T12:30:20Z</time>
      </trkpt>
      <trkpt lat="45.22137" lon="5.81473">
        <ele>215.95</ele>
        <time>2016-10-01T12:30:21Z</time>
      </trkpt>
      <trkpt lat="45.22136" lon="5.8147">
        <ele>215.95</ele>
        <time>2016-10-01T12:30:22Z</time>
      </trkpt>
      <trkpt lat="45.22136" lon="5.81467">
        <ele>215.95</ele>
        <time>2016-10-01T12:30:23Z</time>
      </trkpt>
      <trkpt lat="45.22136" lon="5.81464">
        <ele>215.95</ele>
        <time>2016-10-01T12:30:24Z</time>
      </trkpt>
      <trkpt lat="45.22136" lon="5.81462">
        <ele>215.95</ele>
        <time>2016-10-01T12:30:25Z</time>
      </trkpt>
      <trkpt lat="45.22136" lon="5.8146">
        <ele>215.95</ele>
        <time>2016-10-01T12:30:26Z</time>
      </trkpt>
      <trkpt lat="45.22136" lon="5.81458">
        <ele>215.95</ele>
        <time>2016-10-01T12:30:27Z</time>
      </trkpt>
      <trkpt lat="45.22137" lon="5.81456">
        <ele>215.95</ele>
        <time>2016-10-01T12:30:28Z</time>
      </trkpt>
      <trkpt lat="45.22138" lon="5.81454">
        <ele>215.95</ele>
        <time>2016-10-01T12:30:29Z</time>
      </trkpt>
      <trkpt lat="45.22138" lon="5.81452">
        <ele>215.95</ele>
        <time>2016-10-01T12:30:30Z</time>
      </trkpt>
      <trkpt lat="45.2214" lon="5.8145">
        <ele>215.95</ele>
        <time>2016-10-01T12:30:31Z</time>
      </trkpt>
      <trkpt lat="45.22141" lon="5.81448">
        <ele>215.95</ele>
        <time>2016-10-01T12:30:32Z</time>
      </trkpt>
      <trkpt lat="45.22142" lon="5.81444">
        <ele>215.95</ele>
        <time>2016-10-01T12:30:33Z</time>
      </trkpt>
      <trkpt lat="45.22143" lon="5.81442">
        <ele>215.95</ele>
        <time>2016-10-01T12:30:34Z</time>
      </trkpt>
      <trkpt lat="45.22162" lon="5.81401">
        <ele>215.95</ele>
        <time>2016-10-01T12:30:47Z</time>
      </trkpt>
      <trkpt lat="45.2217" lon="5.81394">
        <ele>215.95</ele>
        <time>2016-10-01T12:30:52Z</time>
      </trkpt>
      <trkpt lat="45.22172" lon="5.81393">
        <ele>215.95</ele>
        <time>2016-10-01T12:30:53Z</time>
      </trkpt>
      <trkpt lat="45.22174" lon="5.81391">
        <ele>216.43</ele>
        <time>2016-10-01T12:30:54Z</time>
      </trkpt>
      <trkpt lat="45.22187" lon="5.81366">
        <ele>217.88</ele>
        <time>2016-10-01T12:31:05Z</time>
      </trkpt>
      <trkpt lat="45.22188" lon="5.81364">
        <ele>217.88</ele>
        <time>2016-10-01T12:31:06Z</time>
      </trkpt>
      <trkpt lat="45.22189" lon="5.81361">
        <ele>217.88</ele>
        <time>2016-10-01T12:31:07Z</time>
      </trkpt>
      <trkpt lat="45.22189" lon="5.81359">
        <ele>217.88</ele>
        <time>2016-10-01T12:31:08Z</time>
      </trkpt>
      <trkpt lat="45.2219" lon="5.81357">
        <ele>217.88</ele>
        <time>2016-10-01T12:31:09Z</time>
      </trkpt>
      <trkpt lat="45.2219" lon="5.81354">
        <ele>218.36</ele>
        <time>2016-10-01T12:31:10Z</time>
      </trkpt>
      <trkpt lat="45.2219" lon="5.81353">
        <ele>218.36</ele>
        <time>2016-10-01T12:31:11Z</time>
      </trkpt>
      <trkpt lat="45.22191" lon="5.8135">
        <ele>218.84</ele>
        <time>2016-10-01T12:31:12Z</time>
      </trkpt>
      <trkpt lat="45.22191" lon="5.81348">
        <ele>218.84</ele>
        <time>2016-10-01T12:31:13Z</time>
      </trkpt>
      <trkpt lat="45.22192" lon="5.81345">
        <ele>219.8</ele>
        <time>2016-10-01T12:31:14Z</time>
      </trkpt>
      <trkpt lat="45.22194" lon="5.81342">
        <ele>219.8</ele>
        <time>2016-10-01T12:31:15Z</time>
      </trkpt>
      <trkpt lat="45.22195" lon="5.8134">
        <ele>219.8</ele>
        <time>2016-10-01T12:31:16Z</time>
      </trkpt>
      <trkpt lat="45.22202" lon="5.81339">
        <ele>219.32</ele>
        <time>2016-10-01T12:31:17Z</time>
      </trkpt>
      <trkpt lat="45.22203" lon="5.81337">
        <ele>219.32</ele>
        <time>2016-10-01T12:31:18Z</time>
      </trkpt>
      <trkpt lat="45.22197" lon="5.8131">
        <ele>219.32</ele>
        <time>2016-10-01T12:31:28Z</time>
      </trkpt>
      <trkpt lat="45.22191" lon="5.81304">
        <ele>218.36</ele>
        <time>2016-10-01T12:31:31Z</time>
      </trkpt>
      <trkpt lat="45.22167" lon="5.81281">
        <ele>217.4</ele>
        <time>2016-10-01T12:31:42Z</time>
      </trkpt>
      <trkpt lat="45.22159" lon="5.81251">
        <ele>217.4</ele>
        <time>2016-10-01T12:31:51Z</time>
      </trkpt>
      <trkpt lat="45.22162" lon="5.8121">
        <ele>218.36</ele>
        <time>2016-10-01T12:32:04Z</time>
      </trkpt>
      <trkpt lat="45.22167" lon="5.81199">
        <ele>218.36</ele>
        <time>2016-10-01T12:32:08Z</time>
      </trkpt>
      <trkpt lat="45.22169" lon="5.81195">
        <ele>218.36</ele>
        <time>2016-10-01T12:32:09Z</time>
      </trkpt>
      <trkpt lat="45.2217" lon="5.81192">
        <ele>218.36</ele>
        <time>2016-10-01T12:32:10Z</time>
      </trkpt>
      <trkpt lat="45.22172" lon="5.81189">
        <ele>218.36</ele>
        <time>2016-10-01T12:32:11Z</time>
      </trkpt>
      <trkpt lat="45.22174" lon="5.81188">
        <ele>218.36</ele>
        <time>2016-10-01T12:32:12Z</time>
      </trkpt>
      <trkpt lat="45.22177" lon="5.81188">
        <ele>218.84</ele>
        <time>2016-10-01T12:32:13Z</time>
      </trkpt>
      <trkpt lat="45.22179" lon="5.81188">
        <ele>218.84</ele>
        <time>2016-10-01T12:32:14Z</time>
      </trkpt>
      <trkpt lat="45.2218" lon="5.81188">
        <ele>218.84</ele>
        <time>2016-10-01T12:32:15Z</time>
      </trkpt>
      <trkpt lat="45.222" lon="5.81183">
        <ele>219.8</ele>
        <time>2016-10-01T12:32:24Z</time>
      </trkpt>
      <trkpt lat="45.22221" lon="5.81182">
        <ele>220.28</ele>
        <time>2016-10-01T12:32:34Z</time>
      </trkpt>
      <trkpt lat="45.22248" lon="5.81189">
        <ele>220.76</ele>
        <time>2016-10-01T12:32:44Z</time>
      </trkpt>
      <trkpt lat="45.22257" lon="5.81201">
        <ele>221.24</ele>
        <time>2016-10-01T12:32:49Z</time>
      </trkpt>
      <trkpt lat="45.22258" lon="5.81203">
        <ele>221.24</ele>
        <time>2016-10-01T12:32:50Z</time>
      </trkpt>
      <trkpt lat="45.2226" lon="5.81224">
        <ele>221.72</ele>
        <time>2016-10-01T12:33:03Z</time>
      </trkpt>
      <trkpt lat="45.22263" lon="5.81227">
        <ele>221.72</ele>
        <time>2016-10-01T12:33:20Z</time>
      </trkpt>
      <trkpt lat="45.2226" lon="5.81218">
        <ele>224.12</ele>
        <time>2016-10-01T12:33:40Z</time>
      </trkpt>
    </trkseg>
  </trk>
</gpx>